sensor_id;sensor_type;location;lat;lon;timestamp;temperature;humidity
53962;DHT22;39868;53.398;6.564;2024-03-02T00:00:40;9.60;81.30
53962;DHT22;39868;53.398;6.564;2024-03-02T00:03:07;9.60;81.30
53962;DHT22;39868;53.398;6.564;2024-03-02T00:05:36;9.60;81.30
53962;DHT22;39868;53.398;6.564;2024-03-02T00:08:05;9.60;81.30
53962;DHT22;39868;53.398;6.564;2024-03-02T00:10:38;9.60;81.30
53962;DHT22;39868;53.398;6.564;2024-03-02T00:13:08;9.60;81.30
53962;DHT22;39868;53.398;6.564;2024-03-02T00:18:11;9.60;81.40
53962;DHT22;39868;53.398;6.564;2024-03-02T00:20:40;9.60;81.50
53962;DHT22;39868;53.398;6.564;2024-03-02T00:23:09;9.60;81.50
53962;DHT22;39868;53.398;6.564;2024-03-02T00:25:43;9.60;81.50
53962;DHT22;39868;53.398;6.564;2024-03-02T00:28:14;9.60;81.50
53962;DHT22;39868;53.398;6.564;2024-03-02T00:30:56;9.50;81.40
53962;DHT22;39868;53.398;6.564;2024-03-02T00:36:05;9.50;81.40
53962;DHT22;39868;53.398;6.564;2024-03-02T00:38:34;9.50;81.50
53962;DHT22;39868;53.398;6.564;2024-03-02T00:41:06;9.50;81.50
53962;DHT22;39868;53.398;6.564;2024-03-02T00:43:47;9.50;81.50
53962;DHT22;39868;53.398;6.564;2024-03-02T00:46:17;9.50;81.50
53962;DHT22;39868;53.398;6.564;2024-03-02T00:48:52;9.40;81.40
53962;DHT22;39868;53.398;6.564;2024-03-02T00:51:22;9.40;81.40
53962;DHT22;39868;53.398;6.564;2024-03-02T00:53:51;9.40;81.40
53962;DHT22;39868;53.398;6.564;2024-03-02T00:56:20;9.40;81.40
53962;DHT22;39868;53.398;6.564;2024-03-02T00:58:50;9.40;81.50
53962;DHT22;39868;53.398;6.564;2024-03-02T01:01:18;9.40;81.50
53962;DHT22;39868;53.398;6.564;2024-03-02T01:03:46;9.40;81.50
53962;DHT22;39868;53.398;6.564;2024-03-02T01:06:15;9.40;81.50
53962;DHT22;39868;53.398;6.564;2024-03-02T01:08:43;9.40;81.40
53962;DHT22;39868;53.398;6.564;2024-03-02T01:11:10;9.40;81.40
53962;DHT22;39868;53.398;6.564;2024-03-02T01:13:38;9.40;81.50
53962;DHT22;39868;53.398;6.564;2024-03-02T01:16:05;9.40;81.50
53962;DHT22;39868;53.398;6.564;2024-03-02T01:18:32;9.40;81.50
53962;DHT22;39868;53.398;6.564;2024-03-02T01:21:01;9.50;81.50
53962;DHT22;39868;53.398;6.564;2024-03-02T01:23:28;9.50;81.50
53962;DHT22;39868;53.398;6.564;2024-03-02T01:25:55;9.50;81.50
53962;DHT22;39868;53.398;6.564;2024-03-02T01:28:23;9.50;81.50
53962;DHT22;39868;53.398;6.564;2024-03-02T01:30:50;9.50;81.50
53962;DHT22;39868;53.398;6.564;2024-03-02T01:33:19;9.50;81.60
53962;DHT22;39868;53.398;6.564;2024-03-02T01:35:46;9.50;81.60
53962;DHT22;39868;53.398;6.564;2024-03-02T01:38:14;9.50;81.50
53962;DHT22;39868;53.398;6.564;2024-03-02T01:40:42;9.50;81.60
53962;DHT22;39868;53.398;6.564;2024-03-02T01:43:11;9.50;81.60
53962;DHT22;39868;53.398;6.564;2024-03-02T01:45:40;9.50;81.60
53962;DHT22;39868;53.398;6.564;2024-03-02T01:48:07;9.60;81.60
53962;DHT22;39868;53.398;6.564;2024-03-02T01:50:35;9.60;81.60
53962;DHT22;39868;53.398;6.564;2024-03-02T01:53:03;9.60;81.60
53962;DHT22;39868;53.398;6.564;2024-03-02T01:55:32;9.60;81.60
53962;DHT22;39868;53.398;6.564;2024-03-02T01:58:01;9.60;81.60
53962;DHT22;39868;53.398;6.564;2024-03-02T02:00:29;9.60;81.60
53962;DHT22;39868;53.398;6.564;2024-03-02T02:02:57;9.60;81.60
53962;DHT22;39868;53.398;6.564;2024-03-02T02:05:25;9.60;81.50
53962;DHT22;39868;53.398;6.564;2024-03-02T02:07:53;9.70;81.50
53962;DHT22;39868;53.398;6.564;2024-03-02T02:10:20;9.70;81.50
53962;DHT22;39868;53.398;6.564;2024-03-02T02:12:47;9.70;81.40
53962;DHT22;39868;53.398;6.564;2024-03-02T02:15:26;9.70;81.40
53962;DHT22;39868;53.398;6.564;2024-03-02T02:17:55;9.70;81.40
53962;DHT22;39868;53.398;6.564;2024-03-02T02:20:23;9.80;81.40
53962;DHT22;39868;53.398;6.564;2024-03-02T02:23:04;9.80;81.30
53962;DHT22;39868;53.398;6.564;2024-03-02T02:25:37;9.80;81.80
53962;DHT22;39868;53.398;6.564;2024-03-02T02:28:04;9.80;81.20
53962;DHT22;39868;53.398;6.564;2024-03-02T02:30:32;9.80;81.20
53962;DHT22;39868;53.398;6.564;2024-03-02T02:33:00;9.70;81.20
53962;DHT22;39868;53.398;6.564;2024-03-02T02:35:27;9.70;81.20
53962;DHT22;39868;53.398;6.564;2024-03-02T02:37:55;9.80;81.30
53962;DHT22;39868;53.398;6.564;2024-03-02T02:40:23;9.80;81.30
53962;DHT22;39868;53.398;6.564;2024-03-02T02:42:51;9.80;81.30
53962;DHT22;39868;53.398;6.564;2024-03-02T02:45:21;9.80;81.30
53962;DHT22;39868;53.398;6.564;2024-03-02T02:47:51;9.80;81.30
53962;DHT22;39868;53.398;6.564;2024-03-02T02:50:18;9.80;81.30
53962;DHT22;39868;53.398;6.564;2024-03-02T02:52:45;9.80;81.20
53962;DHT22;39868;53.398;6.564;2024-03-02T02:55:14;9.80;81.20
53962;DHT22;39868;53.398;6.564;2024-03-02T02:57:43;9.80;81.20
53962;DHT22;39868;53.398;6.564;2024-03-02T03:00:15;9.80;81.20
53962;DHT22;39868;53.398;6.564;2024-03-02T03:02:46;9.80;81.20
53962;DHT22;39868;53.398;6.564;2024-03-02T03:05:15;9.80;81.20
53962;DHT22;39868;53.398;6.564;2024-03-02T03:07:43;9.80;81.20
53962;DHT22;39868;53.398;6.564;2024-03-02T03:10:12;9.80;81.20
53962;DHT22;39868;53.398;6.564;2024-03-02T03:12:41;9.80;81.20
53962;DHT22;39868;53.398;6.564;2024-03-02T03:15:10;9.80;81.30
53962;DHT22;39868;53.398;6.564;2024-03-02T03:17:38;9.80;81.30
53962;DHT22;39868;53.398;6.564;2024-03-02T03:20:06;9.90;81.30
53962;DHT22;39868;53.398;6.564;2024-03-02T03:22:37;9.90;81.30
53962;DHT22;39868;53.398;6.564;2024-03-02T03:25:06;9.90;81.30
53962;DHT22;39868;53.398;6.564;2024-03-02T03:27:36;9.90;81.30
53962;DHT22;39868;53.398;6.564;2024-03-02T03:30:03;9.90;81.20
53962;DHT22;39868;53.398;6.564;2024-03-02T03:32:33;10.00;81.30
53962;DHT22;39868;53.398;6.564;2024-03-02T03:35:01;10.00;81.20
53962;DHT22;39868;53.398;6.564;2024-03-02T03:37:29;10.00;81.20
53962;DHT22;39868;53.398;6.564;2024-03-02T03:40:05;10.00;81.10
53962;DHT22;39868;53.398;6.564;2024-03-02T03:42:38;10.00;81.10
53962;DHT22;39868;53.398;6.564;2024-03-02T03:45:07;10.00;81.00
53962;DHT22;39868;53.398;6.564;2024-03-02T03:47:34;10.00;81.00
53962;DHT22;39868;53.398;6.564;2024-03-02T03:50:02;10.00;81.00
53962;DHT22;39868;53.398;6.564;2024-03-02T03:52:32;10.00;80.90
53962;DHT22;39868;53.398;6.564;2024-03-02T03:55:00;10.00;80.90
53962;DHT22;39868;53.398;6.564;2024-03-02T03:57:27;10.00;80.90
53962;DHT22;39868;53.398;6.564;2024-03-02T03:59:55;10.00;80.80
53962;DHT22;39868;53.398;6.564;2024-03-02T04:02:22;10.00;80.80
53962;DHT22;39868;53.398;6.564;2024-03-02T04:04:49;9.90;81.30
53962;DHT22;39868;53.398;6.564;2024-03-02T04:07:16;9.90;80.70
53962;DHT22;39868;53.398;6.564;2024-03-02T04:09:44;9.90;80.70
53962;DHT22;39868;53.398;6.564;2024-03-02T04:12:11;9.80;80.70
53962;DHT22;39868;53.398;6.564;2024-03-02T04:14:40;9.80;80.70
53962;DHT22;39868;53.398;6.564;2024-03-02T04:17:09;9.80;80.80
53962;DHT22;39868;53.398;6.564;2024-03-02T04:19:37;9.70;80.80
53962;DHT22;39868;53.398;6.564;2024-03-02T04:22:04;9.70;80.80
53962;DHT22;39868;53.398;6.564;2024-03-02T04:24:44;9.70;80.90
53962;DHT22;39868;53.398;6.564;2024-03-02T04:27:11;9.70;80.90
53962;DHT22;39868;53.398;6.564;2024-03-02T04:29:38;9.70;81.00
53962;DHT22;39868;53.398;6.564;2024-03-02T04:32:06;9.60;80.90
53962;DHT22;39868;53.398;6.564;2024-03-02T04:34:33;9.60;81.00
53962;DHT22;39868;53.398;6.564;2024-03-02T04:37:00;9.60;81.00
53962;DHT22;39868;53.398;6.564;2024-03-02T04:39:28;9.60;81.00
53962;DHT22;39868;53.398;6.564;2024-03-02T04:41:55;9.60;81.10
53962;DHT22;39868;53.398;6.564;2024-03-02T04:44:22;9.50;81.00
53962;DHT22;39868;53.398;6.564;2024-03-02T04:46:51;9.50;81.10
53962;DHT22;39868;53.398;6.564;2024-03-02T04:49:18;9.50;81.10
53962;DHT22;39868;53.398;6.564;2024-03-02T04:51:45;9.50;81.20
53962;DHT22;39868;53.398;6.564;2024-03-02T04:54:13;9.50;81.20
53962;DHT22;39868;53.398;6.564;2024-03-02T04:56:41;9.50;81.20
53962;DHT22;39868;53.398;6.564;2024-03-02T04:59:19;9.50;81.30
53962;DHT22;39868;53.398;6.564;2024-03-02T05:01:47;9.40;81.40
53962;DHT22;39868;53.398;6.564;2024-03-02T05:04:14;9.40;81.40
53962;DHT22;39868;53.398;6.564;2024-03-02T05:06:42;9.40;81.50
53962;DHT22;39868;53.398;6.564;2024-03-02T05:09:09;9.40;81.50
53962;DHT22;39868;53.398;6.564;2024-03-02T05:11:36;9.40;81.60
53962;DHT22;39868;53.398;6.564;2024-03-02T05:14:06;9.40;81.60
53962;DHT22;39868;53.398;6.564;2024-03-02T05:16:40;9.40;81.60
53962;DHT22;39868;53.398;6.564;2024-03-02T05:19:08;9.50;81.70
53962;DHT22;39868;53.398;6.564;2024-03-02T05:21:35;9.40;81.60
53962;DHT22;39868;53.398;6.564;2024-03-02T05:24:03;9.40;81.60
53962;DHT22;39868;53.398;6.564;2024-03-02T05:26:30;9.40;81.70
53962;DHT22;39868;53.398;6.564;2024-03-02T05:28:57;9.40;81.70
53962;DHT22;39868;53.398;6.564;2024-03-02T05:31:24;9.40;81.80
53962;DHT22;39868;53.398;6.564;2024-03-02T05:33:51;9.40;81.80
53962;DHT22;39868;53.398;6.564;2024-03-02T05:36:24;9.40;81.90
53962;DHT22;39868;53.398;6.564;2024-03-02T05:38:51;9.40;81.90
53962;DHT22;39868;53.398;6.564;2024-03-02T05:41:18;9.40;81.90
53962;DHT22;39868;53.398;6.564;2024-03-02T05:43:46;9.40;81.90
53962;DHT22;39868;53.398;6.564;2024-03-02T05:46:14;9.40;81.90
53962;DHT22;39868;53.398;6.564;2024-03-02T05:48:41;9.40;82.00
53962;DHT22;39868;53.398;6.564;2024-03-02T05:51:08;9.40;82.00
53962;DHT22;39868;53.398;6.564;2024-03-02T05:53:36;9.40;82.10
53962;DHT22;39868;53.398;6.564;2024-03-02T05:56:05;9.40;82.10
53962;DHT22;39868;53.398;6.564;2024-03-02T05:58:33;9.40;82.20
53962;DHT22;39868;53.398;6.564;2024-03-02T06:01:19;9.40;82.20
53962;DHT22;39868;53.398;6.564;2024-03-02T06:03:46;9.40;82.30
53962;DHT22;39868;53.398;6.564;2024-03-02T06:06:14;9.40;82.30
53962;DHT22;39868;53.398;6.564;2024-03-02T06:08:41;9.50;82.30
53962;DHT22;39868;53.398;6.564;2024-03-02T06:11:08;9.50;82.30
53962;DHT22;39868;53.398;6.564;2024-03-02T06:13:35;9.50;82.40
53962;DHT22;39868;53.398;6.564;2024-03-02T06:16:03;9.50;82.40
53962;DHT22;39868;53.398;6.564;2024-03-02T06:18:30;9.50;82.40
53962;DHT22;39868;53.398;6.564;2024-03-02T06:20:57;9.60;82.50
53962;DHT22;39868;53.398;6.564;2024-03-02T06:23:24;9.60;82.50
53962;DHT22;39868;53.398;6.564;2024-03-02T06:25:52;9.60;82.50
53962;DHT22;39868;53.398;6.564;2024-03-02T06:28:19;9.60;82.40
53962;DHT22;39868;53.398;6.564;2024-03-02T06:30:46;9.70;82.50
53962;DHT22;39868;53.398;6.564;2024-03-02T06:33:13;9.70;82.40
53962;DHT22;39868;53.398;6.564;2024-03-02T06:35:41;9.70;82.40
53962;DHT22;39868;53.398;6.564;2024-03-02T06:38:08;9.80;82.40
53962;DHT22;39868;53.398;6.564;2024-03-02T06:40:35;9.80;82.40
53962;DHT22;39868;53.398;6.564;2024-03-02T06:43:06;9.80;82.40
53962;DHT22;39868;53.398;6.564;2024-03-02T06:45:33;9.90;82.30
53962;DHT22;39868;53.398;6.564;2024-03-02T06:48:01;9.90;82.30
53962;DHT22;39868;53.398;6.564;2024-03-02T06:50:29;9.90;82.30
53962;DHT22;39868;53.398;6.564;2024-03-02T06:52:56;10.00;82.30
53962;DHT22;39868;53.398;6.564;2024-03-02T06:55:24;10.00;82.20
53962;DHT22;39868;53.398;6.564;2024-03-02T06:57:51;10.00;82.20
53962;DHT22;39868;53.398;6.564;2024-03-02T07:00:19;10.10;82.20
53962;DHT22;39868;53.398;6.564;2024-03-02T07:02:47;10.10;82.20
53962;DHT22;39868;53.398;6.564;2024-03-02T07:05:14;10.20;82.20
53962;DHT22;39868;53.398;6.564;2024-03-02T07:07:42;10.20;82.10
53962;DHT22;39868;53.398;6.564;2024-03-02T07:10:09;10.30;82.20
53962;DHT22;39868;53.398;6.564;2024-03-02T07:12:37;10.30;82.10
53962;DHT22;39868;53.398;6.564;2024-03-02T07:15:05;10.30;81.90
53962;DHT22;39868;53.398;6.564;2024-03-02T07:17:32;10.30;81.90
53962;DHT22;39868;53.398;6.564;2024-03-02T07:20:00;10.40;81.90
53962;DHT22;39868;53.398;6.564;2024-03-02T07:22:27;10.40;81.80
53962;DHT22;39868;53.398;6.564;2024-03-02T07:24:56;10.40;81.80
53962;DHT22;39868;53.398;6.564;2024-03-02T07:27:24;10.40;81.80
53962;DHT22;39868;53.398;6.564;2024-03-02T07:29:51;10.50;81.80
53962;DHT22;39868;53.398;6.564;2024-03-02T07:32:18;10.50;81.80
53962;DHT22;39868;53.398;6.564;2024-03-02T07:34:45;10.60;81.80
53962;DHT22;39868;53.398;6.564;2024-03-02T07:37:12;10.60;81.80
53962;DHT22;39868;53.398;6.564;2024-03-02T07:39:39;10.60;81.80
53962;DHT22;39868;53.398;6.564;2024-03-02T07:42:07;10.60;81.80
53962;DHT22;39868;53.398;6.564;2024-03-02T07:44:34;10.60;81.80
53962;DHT22;39868;53.398;6.564;2024-03-02T07:47:02;10.60;81.80
53962;DHT22;39868;53.398;6.564;2024-03-02T07:49:30;10.60;81.90
53962;DHT22;39868;53.398;6.564;2024-03-02T07:51:57;10.70;81.90
53962;DHT22;39868;53.398;6.564;2024-03-02T07:54:24;10.70;81.90
53962;DHT22;39868;53.398;6.564;2024-03-02T07:56:52;10.90;81.70
53962;DHT22;39868;53.398;6.564;2024-03-02T07:59:19;11.30;81.40
53962;DHT22;39868;53.398;6.564;2024-03-02T08:01:49;11.70;81.10
53962;DHT22;39868;53.398;6.564;2024-03-02T08:04:17;11.80;81.40
53962;DHT22;39868;53.398;6.564;2024-03-02T08:06:45;12.00;81.30
53962;DHT22;39868;53.398;6.564;2024-03-02T08:09:12;12.30;80.90
53962;DHT22;39868;53.398;6.564;2024-03-02T08:11:39;12.50;80.70
53962;DHT22;39868;53.398;6.564;2024-03-02T08:14:07;12.60;80.70
53962;DHT22;39868;53.398;6.564;2024-03-02T08:16:35;12.70;80.50
53962;DHT22;39868;53.398;6.564;2024-03-02T08:19:02;13.00;80.10
53962;DHT22;39868;53.398;6.564;2024-03-02T08:21:30;13.30;79.50
53962;DHT22;39868;53.398;6.564;2024-03-02T08:23:59;13.40;79.30
53962;DHT22;39868;53.398;6.564;2024-03-02T08:26:27;13.80;78.80
53962;DHT22;39868;53.398;6.564;2024-03-02T08:28:59;14.00;78.60
53962;DHT22;39868;53.398;6.564;2024-03-02T08:31:28;14.10;78.50
53962;DHT22;39868;53.398;6.564;2024-03-02T08:33:56;14.10;78.50
53962;DHT22;39868;53.398;6.564;2024-03-02T08:36:24;14.10;78.30
53962;DHT22;39868;53.398;6.564;2024-03-02T08:38:51;14.00;78.50
53962;DHT22;39868;53.398;6.564;2024-03-02T08:41:19;14.10;78.40
53962;DHT22;39868;53.398;6.564;2024-03-02T08:43:46;14.30;78.20
53962;DHT22;39868;53.398;6.564;2024-03-02T08:46:13;14.30;78.20
53962;DHT22;39868;53.398;6.564;2024-03-02T08:48:41;14.20;78.70
53962;DHT22;39868;53.398;6.564;2024-03-02T08:51:08;14.10;78.10
53962;DHT22;39868;53.398;6.564;2024-03-02T08:53:37;14.00;77.90
53962;DHT22;39868;53.398;6.564;2024-03-02T08:56:06;14.00;78.00
53962;DHT22;39868;53.398;6.564;2024-03-02T08:58:34;13.90;77.90
53962;DHT22;39868;53.398;6.564;2024-03-02T09:01:01;13.90;78.00
53962;DHT22;39868;53.398;6.564;2024-03-02T09:03:29;13.90;78.10
53962;DHT22;39868;53.398;6.564;2024-03-02T09:05:56;14.00;78.20
53962;DHT22;39868;53.398;6.564;2024-03-02T09:08:24;14.00;78.00
53962;DHT22;39868;53.398;6.564;2024-03-02T09:10:52;14.00;77.70
53962;DHT22;39868;53.398;6.564;2024-03-02T09:13:19;13.90;77.30
53962;DHT22;39868;53.398;6.564;2024-03-02T09:15:48;13.90;77.30
53962;DHT22;39868;53.398;6.564;2024-03-02T09:18:15;13.80;77.10
53962;DHT22;39868;53.398;6.564;2024-03-02T09:20:42;13.70;76.60
53962;DHT22;39868;53.398;6.564;2024-03-02T09:23:09;13.60;76.60
53962;DHT22;39868;53.398;6.564;2024-03-02T09:25:37;13.60;76.60
53962;DHT22;39868;53.398;6.564;2024-03-02T09:28:04;13.50;76.60
53962;DHT22;39868;53.398;6.564;2024-03-02T09:30:31;13.50;76.80
53962;DHT22;39868;53.398;6.564;2024-03-02T09:32:59;13.50;76.70
53962;DHT22;39868;53.398;6.564;2024-03-02T09:35:35;13.50;76.50
53962;DHT22;39868;53.398;6.564;2024-03-02T09:38:02;13.60;76.20
53962;DHT22;39868;53.398;6.564;2024-03-02T09:40:30;13.50;76.40
53962;DHT22;39868;53.398;6.564;2024-03-02T09:42:57;13.50;76.70
53962;DHT22;39868;53.398;6.564;2024-03-02T09:45:29;13.60;76.70
53962;DHT22;39868;53.398;6.564;2024-03-02T09:47:57;13.60;76.50
53962;DHT22;39868;53.398;6.564;2024-03-02T09:50:24;13.60;76.60
53962;DHT22;39868;53.398;6.564;2024-03-02T09:52:52;13.60;75.20
53962;DHT22;39868;53.398;6.564;2024-03-02T09:55:22;13.60;75.20
53962;DHT22;39868;53.398;6.564;2024-03-02T09:57:49;13.60;75.40
53962;DHT22;39868;53.398;6.564;2024-03-02T10:00:17;13.60;73.60
53962;DHT22;39868;53.398;6.564;2024-03-02T10:02:44;13.60;74.30
53962;DHT22;39868;53.398;6.564;2024-03-02T10:05:26;13.60;73.90
53962;DHT22;39868;53.398;6.564;2024-03-02T10:08:00;13.60;74.20
53962;DHT22;39868;53.398;6.564;2024-03-02T10:10:39;13.60;73.90
53962;DHT22;39868;53.398;6.564;2024-03-02T10:13:11;13.60;74.20
53962;DHT22;39868;53.398;6.564;2024-03-02T10:15:41;13.60;74.70
53962;DHT22;39868;53.398;6.564;2024-03-02T10:18:12;13.60;74.90
53962;DHT22;39868;53.398;6.564;2024-03-02T10:20:40;13.50;74.80
53962;DHT22;39868;53.398;6.564;2024-03-02T10:23:15;13.60;75.00
53962;DHT22;39868;53.398;6.564;2024-03-02T10:25:45;13.60;74.90
53962;DHT22;39868;53.398;6.564;2024-03-02T10:28:24;13.60;74.70
53962;DHT22;39868;53.398;6.564;2024-03-02T10:30:51;13.60;73.20
53962;DHT22;39868;53.398;6.564;2024-03-02T10:33:20;13.60;73.90
53962;DHT22;39868;53.398;6.564;2024-03-02T10:35:50;13.60;74.40
53962;DHT22;39868;53.398;6.564;2024-03-02T10:38:17;13.70;74.40
53962;DHT22;39868;53.398;6.564;2024-03-02T10:40:48;13.70;74.70
53962;DHT22;39868;53.398;6.564;2024-03-02T10:43:16;13.70;74.60
53962;DHT22;39868;53.398;6.564;2024-03-02T10:45:48;13.80;75.00
53962;DHT22;39868;53.398;6.564;2024-03-02T10:48:16;13.80;74.90
53962;DHT22;39868;53.398;6.564;2024-03-02T10:50:43;13.90;74.90
53962;DHT22;39868;53.398;6.564;2024-03-02T10:53:10;14.00;74.90
53962;DHT22;39868;53.398;6.564;2024-03-02T10:55:38;14.00;74.70
53962;DHT22;39868;53.398;6.564;2024-03-02T10:58:06;14.10;74.70
53962;DHT22;39868;53.398;6.564;2024-03-02T11:00:38;14.10;74.30
53962;DHT22;39868;53.398;6.564;2024-03-02T11:03:07;14.20;74.10
53962;DHT22;39868;53.398;6.564;2024-03-02T11:05:40;14.20;74.20
53962;DHT22;39868;53.398;6.564;2024-03-02T11:08:13;14.20;74.00
53962;DHT22;39868;53.398;6.564;2024-03-02T11:10:58;14.20;73.90
53962;DHT22;39868;53.398;6.564;2024-03-02T11:13:34;14.20;73.70
53962;DHT22;39868;53.398;6.564;2024-03-02T11:16:29;14.20;73.70
53962;DHT22;39868;53.398;6.564;2024-03-02T11:18:59;14.30;74.00
53962;DHT22;39868;53.398;6.564;2024-03-02T11:21:27;14.30;73.60
53962;DHT22;39868;53.398;6.564;2024-03-02T11:23:55;14.40;73.10
53962;DHT22;39868;53.398;6.564;2024-03-02T11:26:22;14.40;73.00
53962;DHT22;39868;53.398;6.564;2024-03-02T11:28:51;14.50;72.60
53962;DHT22;39868;53.398;6.564;2024-03-02T11:31:18;14.50;72.30
53962;DHT22;39868;53.398;6.564;2024-03-02T11:33:46;14.50;72.20
53962;DHT22;39868;53.398;6.564;2024-03-02T11:36:13;14.50;72.00
53962;DHT22;39868;53.398;6.564;2024-03-02T11:38:44;14.50;72.20
53962;DHT22;39868;53.398;6.564;2024-03-02T11:41:20;14.60;72.10
53962;DHT22;39868;53.398;6.564;2024-03-02T11:43:49;14.60;71.60
53962;DHT22;39868;53.398;6.564;2024-03-02T11:46:22;14.60;71.40
53962;DHT22;39868;53.398;6.564;2024-03-02T11:48:50;14.70;71.50
53962;DHT22;39868;53.398;6.564;2024-03-02T11:51:18;14.70;71.50
53962;DHT22;39868;53.398;6.564;2024-03-02T11:53:46;14.60;71.50
53962;DHT22;39868;53.398;6.564;2024-03-02T11:56:14;14.70;71.60
53962;DHT22;39868;53.398;6.564;2024-03-02T11:58:42;14.70;71.50
53962;DHT22;39868;53.398;6.564;2024-03-02T12:01:10;14.70;71.70
53962;DHT22;39868;53.398;6.564;2024-03-02T12:03:39;14.70;71.60
53962;DHT22;39868;53.398;6.564;2024-03-02T12:06:07;14.70;71.50
53962;DHT22;39868;53.398;6.564;2024-03-02T12:08:34;14.80;71.50
53962;DHT22;39868;53.398;6.564;2024-03-02T12:11:03;14.80;71.60
53962;DHT22;39868;53.398;6.564;2024-03-02T12:13:31;14.90;71.70
53962;DHT22;39868;53.398;6.564;2024-03-02T12:15:59;14.90;71.40
53962;DHT22;39868;53.398;6.564;2024-03-02T12:18:29;15.00;71.10
53962;DHT22;39868;53.398;6.564;2024-03-02T12:20:57;15.00;71.40
53962;DHT22;39868;53.398;6.564;2024-03-02T12:23:25;15.10;71.20
53962;DHT22;39868;53.398;6.564;2024-03-02T12:25:53;15.20;71.00
53962;DHT22;39868;53.398;6.564;2024-03-02T12:28:21;15.30;70.80
53962;DHT22;39868;53.398;6.564;2024-03-02T12:30:48;15.30;70.60
53962;DHT22;39868;53.398;6.564;2024-03-02T12:33:17;15.40;70.50
53962;DHT22;39868;53.398;6.564;2024-03-02T12:35:44;15.40;70.10
53962;DHT22;39868;53.398;6.564;2024-03-02T12:38:12;15.40;69.90
53962;DHT22;39868;53.398;6.564;2024-03-02T12:40:40;15.50;69.70
53962;DHT22;39868;53.398;6.564;2024-03-02T12:43:07;15.50;69.00
53962;DHT22;39868;53.398;6.564;2024-03-02T12:45:35;15.50;68.90
53962;DHT22;39868;53.398;6.564;2024-03-02T12:48:04;15.50;69.20
53962;DHT22;39868;53.398;6.564;2024-03-02T12:50:33;15.50;69.10
53962;DHT22;39868;53.398;6.564;2024-03-02T12:53:00;15.60;69.00
53962;DHT22;39868;53.398;6.564;2024-03-02T12:55:28;15.60;69.00
53962;DHT22;39868;53.398;6.564;2024-03-02T12:57:56;15.70;68.80
53962;DHT22;39868;53.398;6.564;2024-03-02T13:00:24;15.70;69.20
53962;DHT22;39868;53.398;6.564;2024-03-02T13:02:51;15.70;69.00
53962;DHT22;39868;53.398;6.564;2024-03-02T13:05:20;15.80;68.30
53962;DHT22;39868;53.398;6.564;2024-03-02T13:07:48;15.80;68.20
53962;DHT22;39868;53.398;6.564;2024-03-02T13:10:17;15.90;68.00
53962;DHT22;39868;53.398;6.564;2024-03-02T13:12:45;15.90;66.90
53962;DHT22;39868;53.398;6.564;2024-03-02T13:15:13;15.90;67.20
53962;DHT22;39868;53.398;6.564;2024-03-02T13:17:47;16.00;67.20
53962;DHT22;39868;53.398;6.564;2024-03-02T13:20:14;16.00;66.50
53962;DHT22;39868;53.398;6.564;2024-03-02T13:22:42;16.00;65.70
53962;DHT22;39868;53.398;6.564;2024-03-02T13:25:10;16.10;66.10
53962;DHT22;39868;53.398;6.564;2024-03-02T13:27:39;16.10;65.90
53962;DHT22;39868;53.398;6.564;2024-03-02T13:30:07;16.10;65.70
53962;DHT22;39868;53.398;6.564;2024-03-02T13:32:36;16.10;66.30
53962;DHT22;39868;53.398;6.564;2024-03-02T13:35:04;16.10;66.50
53962;DHT22;39868;53.398;6.564;2024-03-02T13:37:32;16.20;66.50
53962;DHT22;39868;53.398;6.564;2024-03-02T13:39:59;16.10;66.40
53962;DHT22;39868;53.398;6.564;2024-03-02T13:42:26;16.20;66.20
53962;DHT22;39868;53.398;6.564;2024-03-02T13:44:54;16.20;66.30
53962;DHT22;39868;53.398;6.564;2024-03-02T13:47:22;16.20;66.60
53962;DHT22;39868;53.398;6.564;2024-03-02T13:49:49;16.20;66.90
53962;DHT22;39868;53.398;6.564;2024-03-02T13:52:16;16.30;67.30
53962;DHT22;39868;53.398;6.564;2024-03-02T13:54:46;16.30;67.40
53962;DHT22;39868;53.398;6.564;2024-03-02T13:57:14;16.40;67.00
53962;DHT22;39868;53.398;6.564;2024-03-02T13:59:42;16.40;66.80
53962;DHT22;39868;53.398;6.564;2024-03-02T14:02:11;16.50;67.10
53962;DHT22;39868;53.398;6.564;2024-03-02T14:04:39;16.60;67.10
53962;DHT22;39868;53.398;6.564;2024-03-02T14:07:07;16.60;67.20
53962;DHT22;39868;53.398;6.564;2024-03-02T14:09:35;16.60;66.70
53962;DHT22;39868;53.398;6.564;2024-03-02T14:12:05;16.70;66.50
53962;DHT22;39868;53.398;6.564;2024-03-02T14:14:33;16.70;66.20
53962;DHT22;39868;53.398;6.564;2024-03-02T14:17:01;16.80;66.80
53962;DHT22;39868;53.398;6.564;2024-03-02T14:19:33;16.80;66.80
53962;DHT22;39868;53.398;6.564;2024-03-02T14:22:01;16.80;66.20
53962;DHT22;39868;53.398;6.564;2024-03-02T14:24:28;16.90;66.10
53962;DHT22;39868;53.398;6.564;2024-03-02T14:26:57;16.90;65.50
53962;DHT22;39868;53.398;6.564;2024-03-02T14:29:42;16.90;65.60
53962;DHT22;39868;53.398;6.564;2024-03-02T14:32:09;16.90;66.20
53962;DHT22;39868;53.398;6.564;2024-03-02T14:34:37;16.90;65.50
53962;DHT22;39868;53.398;6.564;2024-03-02T14:37:06;16.90;65.20
53962;DHT22;39868;53.398;6.564;2024-03-02T14:39:34;16.80;65.00
53962;DHT22;39868;53.398;6.564;2024-03-02T14:42:02;16.80;65.10
53962;DHT22;39868;53.398;6.564;2024-03-02T14:44:30;16.80;65.10
53962;DHT22;39868;53.398;6.564;2024-03-02T14:47:01;16.70;65.10
53962;DHT22;39868;53.398;6.564;2024-03-02T14:49:30;16.70;65.00
53962;DHT22;39868;53.398;6.564;2024-03-02T14:52:08;16.70;66.50
53962;DHT22;39868;53.398;6.564;2024-03-02T14:54:36;16.60;65.50
53962;DHT22;39868;53.398;6.564;2024-03-02T14:57:04;16.60;65.80
53962;DHT22;39868;53.398;6.564;2024-03-02T14:59:33;16.60;66.00
53962;DHT22;39868;53.398;6.564;2024-03-02T15:02:00;16.50;66.50
53962;DHT22;39868;53.398;6.564;2024-03-02T15:04:27;16.60;66.80
53962;DHT22;39868;53.398;6.564;2024-03-02T15:06:55;16.60;66.60
53962;DHT22;39868;53.398;6.564;2024-03-02T15:09:22;16.70;66.90
53962;DHT22;39868;53.398;6.564;2024-03-02T15:11:49;16.70;67.00
53962;DHT22;39868;53.398;6.564;2024-03-02T15:14:17;16.80;66.80
53962;DHT22;39868;53.398;6.564;2024-03-02T15:16:44;16.90;67.00
53962;DHT22;39868;53.398;6.564;2024-03-02T15:19:11;17.00;66.90
53962;DHT22;39868;53.398;6.564;2024-03-02T15:21:38;17.00;66.60
53962;DHT22;39868;53.398;6.564;2024-03-02T15:24:06;17.10;66.70
53962;DHT22;39868;53.398;6.564;2024-03-02T15:26:34;17.20;66.90
53962;DHT22;39868;53.398;6.564;2024-03-02T15:29:01;17.30;66.80
53962;DHT22;39868;53.398;6.564;2024-03-02T15:31:28;17.40;66.90
53962;DHT22;39868;53.398;6.564;2024-03-02T15:33:55;17.50;66.70
53962;DHT22;39868;53.398;6.564;2024-03-02T15:36:25;17.60;66.80
53962;DHT22;39868;53.398;6.564;2024-03-02T15:38:53;17.70;66.80
53962;DHT22;39868;53.398;6.564;2024-03-02T15:41:20;17.80;66.30
53962;DHT22;39868;53.398;6.564;2024-03-02T15:43:47;17.90;66.50
53962;DHT22;39868;53.398;6.564;2024-03-02T15:46:15;18.00;66.20
53962;DHT22;39868;53.398;6.564;2024-03-02T15:48:44;18.10;66.20
53962;DHT22;39868;53.398;6.564;2024-03-02T15:51:11;18.20;65.80